sensor_id;sensor_type;location;lat;lon;timestamp;P1;durP1;ratioP1;P2;durP2;ratioP2
68140;SDS011;54941;52.220;104.306;2023-02-15T00:02:19;51.67;;;22.92;;
68140;SDS011;54941;52.220;104.306;2023-02-15T00:04:46;56.40;;;22.60;;
68140;SDS011;54941;52.220;104.306;2023-02-15T00:07:15;57.35;;;22.15;;
68140;SDS011;54941;52.220;104.306;2023-02-15T00:09:42;53.42;;;20.60;;
68140;SDS011;54941;52.220;104.306;2023-02-15T00:12:11;52.00;;;21.58;;
68140;SDS011;54941;52.220;104.306;2023-02-15T00:14:37;55.95;;;21.98;;
68140;SDS011;54941;52.220;104.306;2023-02-15T00:17:04;57.97;;;22.48;;
68140;SDS011;54941;52.220;104.306;2023-02-15T00:19:30;42.83;;;19.80;;
68140;SDS011;54941;52.220;104.306;2023-02-15T00:21:57;44.75;;;20.20;;
68140;SDS011;54941;52.220;104.306;2023-02-15T00:24:24;48.30;;;22.52;;
68140;SDS011;54941;52.220;104.306;2023-02-15T00:26:51;47.47;;;19.90;;
68140;SDS011;54941;52.220;104.306;2023-02-15T00:29:18;51.72;;;23.48;;
68140;SDS011;54941;52.220;104.306;2023-02-15T00:31:45;46.25;;;19.00;;
68140;SDS011;54941;52.220;104.306;2023-02-15T00:34:14;32.35;;;13.43;;
68140;SDS011;54941;52.220;104.306;2023-02-15T00:36:41;54.53;;;23.63;;
68140;SDS011;54941;52.220;104.306;2023-02-15T00:39:08;50.63;;;23.80;;
68140;SDS011;54941;52.220;104.306;2023-02-15T00:41:36;59.10;;;24.75;;
68140;SDS011;54941;52.220;104.306;2023-02-15T00:44:03;35.45;;;14.68;;
68140;SDS011;54941;52.220;104.306;2023-02-15T00:46:30;61.83;;;20.95;;
68140;SDS011;54941;52.220;104.306;2023-02-15T00:48:57;46.75;;;19.85;;
68140;SDS011;54941;52.220;104.306;2023-02-15T00:51:23;57.67;;;25.17;;
68140;SDS011;54941;52.220;104.306;2023-02-15T00:53:50;60.60;;;24.67;;
68140;SDS011;54941;52.220;104.306;2023-02-15T00:56:16;57.85;;;25.13;;
68140;SDS011;54941;52.220;104.306;2023-02-15T00:58:44;49.45;;;22.42;;
68140;SDS011;54941;52.220;104.306;2023-02-15T01:01:12;61.70;;;24.92;;
68140;SDS011;54941;52.220;104.306;2023-02-15T01:03:40;56.25;;;25.10;;
68140;SDS011;54941;52.220;104.306;2023-02-15T01:06:06;55.28;;;24.23;;
68140;SDS011;54941;52.220;104.306;2023-02-15T01:08:33;64.57;;;27.02;;
68140;SDS011;54941;52.220;104.306;2023-02-15T01:11:02;50.63;;;21.92;;
68140;SDS011;54941;52.220;104.306;2023-02-15T01:13:30;67.35;;;25.70;;
68140;SDS011;54941;52.220;104.306;2023-02-15T01:15:59;67.30;;;26.65;;
68140;SDS011;54941;52.220;104.306;2023-02-15T01:18:25;43.40;;;19.90;;
68140;SDS011;54941;52.220;104.306;2023-02-15T01:20:52;59.22;;;26.45;;
68140;SDS011;54941;52.220;104.306;2023-02-15T01:23:19;34.58;;;14.52;;
68140;SDS011;54941;52.220;104.306;2023-02-15T01:25:45;74.85;;;29.30;;
68140;SDS011;54941;52.220;104.306;2023-02-15T01:28:11;68.15;;;29.73;;
68140;SDS011;54941;52.220;104.306;2023-02-15T01:30:38;60.25;;;26.75;;
68140;SDS011;54941;52.220;104.306;2023-02-15T01:33:06;40.75;;;15.60;;
68140;SDS011;54941;52.220;104.306;2023-02-15T01:35:32;63.33;;;26.55;;
68140;SDS011;54941;52.220;104.306;2023-02-15T01:37:59;53.97;;;25.08;;
68140;SDS011;54941;52.220;104.306;2023-02-15T01:40:25;68.88;;;29.45;;
68140;SDS011;54941;52.220;104.306;2023-02-15T01:42:52;40.22;;;19.17;;
68140;SDS011;54941;52.220;104.306;2023-02-15T01:45:20;54.33;;;21.35;;
68140;SDS011;54941;52.220;104.306;2023-02-15T01:47:50;50.03;;;22.08;;
68140;SDS011;54941;52.220;104.306;2023-02-15T01:50:22;51.92;;;22.77;;
68140;SDS011;54941;52.220;104.306;2023-02-15T01:52:54;44.33;;;20.15;;
68140;SDS011;54941;52.220;104.306;2023-02-15T01:55:25;45.13;;;18.75;;
68140;SDS011;54941;52.220;104.306;2023-02-15T01:57:54;43.60;;;20.38;;
68140;SDS011;54941;52.220;104.306;2023-02-15T02:00:21;42.95;;;20.98;;
68140;SDS011;54941;52.220;104.306;2023-02-15T02:02:48;36.15;;;17.30;;
68140;SDS011;54941;52.220;104.306;2023-02-15T02:05:18;19.23;;;9.23;;
68140;SDS011;54941;52.220;104.306;2023-02-15T02:07:46;32.78;;;15.23;;
68140;SDS011;54941;52.220;104.306;2023-02-15T02:10:15;33.85;;;14.95;;
68140;SDS011;54941;52.220;104.306;2023-02-15T02:12:43;37.78;;;15.15;;
68140;SDS011;54941;52.220;104.306;2023-02-15T02:17:42;39.20;;;17.58;;
68140;SDS011;54941;52.220;104.306;2023-02-15T02:23:33;45.33;;;18.83;;
68140;SDS011;54941;52.220;104.306;2023-02-15T02:29:30;37.05;;;17.05;;
68140;SDS011;54941;52.220;104.306;2023-02-15T02:35:33;42.63;;;18.83;;
68140;SDS011;54941;52.220;104.306;2023-02-15T02:38:11;41.25;;;18.75;;
68140;SDS011;54941;52.220;104.306;2023-02-15T02:40:50;49.95;;;20.30;;
68140;SDS011;54941;52.220;104.306;2023-02-15T02:43:21;41.30;;;17.08;;
68140;SDS011;54941;52.220;104.306;2023-02-15T02:45:58;44.33;;;18.83;;
68140;SDS011;54941;52.220;104.306;2023-02-15T02:48:32;51.38;;;22.30;;
68140;SDS011;54941;52.220;104.306;2023-02-15T02:50:59;47.70;;;18.23;;
68140;SDS011;54941;52.220;104.306;2023-02-15T02:53:26;42.92;;;17.80;;
68140;SDS011;54941;52.220;104.306;2023-02-15T02:55:56;49.03;;;21.50;;
68140;SDS011;54941;52.220;104.306;2023-02-15T02:58:29;55.83;;;23.25;;
68140;SDS011;54941;52.220;104.306;2023-02-15T03:01:01;55.83;;;19.77;;
68140;SDS011;54941;52.220;104.306;2023-02-15T03:03:31;41.67;;;18.05;;
68140;SDS011;54941;52.220;104.306;2023-02-15T03:06:04;42.03;;;20.05;;
68140;SDS011;54941;52.220;104.306;2023-02-15T03:08:35;40.35;;;17.08;;
68140;SDS011;54941;52.220;104.306;2023-02-15T03:11:05;45.60;;;19.20;;
68140;SDS011;54941;52.220;104.306;2023-02-15T03:13:32;38.10;;;19.55;;
68140;SDS011;54941;52.220;104.306;2023-02-15T03:15:59;37.03;;;17.52;;
68140;SDS011;54941;52.220;104.306;2023-02-15T03:18:28;43.38;;;19.05;;
68140;SDS011;54941;52.220;104.306;2023-02-15T03:20:59;35.50;;;17.05;;
68140;SDS011;54941;52.220;104.306;2023-02-15T03:23:27;44.53;;;20.30;;
68140;SDS011;54941;52.220;104.306;2023-02-15T03:25:57;32.40;;;14.50;;
68140;SDS011;54941;52.220;104.306;2023-02-15T03:28:28;38.13;;;18.33;;
68140;SDS011;54941;52.220;104.306;2023-02-15T03:31:00;34.10;;;15.20;;
68140;SDS011;54941;52.220;104.306;2023-02-15T03:33:30;31.55;;;13.95;;
68140;SDS011;54941;52.220;104.306;2023-02-15T03:35:59;42.83;;;18.75;;
68140;SDS011;54941;52.220;104.306;2023-02-15T03:38:30;40.92;;;18.20;;
68140;SDS011;54941;52.220;104.306;2023-02-15T03:41:04;40.08;;;17.52;;
68140;SDS011;54941;52.220;104.306;2023-02-15T03:43:34;38.53;;;14.25;;
68140;SDS011;54941;52.220;104.306;2023-02-15T03:46:11;41.38;;;16.75;;
68140;SDS011;54941;52.220;104.306;2023-02-15T03:48:41;37.78;;;19.92;;
68140;SDS011;54941;52.220;104.306;2023-02-15T03:51:14;31.83;;;15.20;;
68140;SDS011;54941;52.220;104.306;2023-02-15T03:53:44;40.20;;;18.92;;
68140;SDS011;54941;52.220;104.306;2023-02-15T03:56:12;33.05;;;15.23;;
68140;SDS011;54941;52.220;104.306;2023-02-15T03:58:39;37.92;;;17.67;;
68140;SDS011;54941;52.220;104.306;2023-02-15T04:01:09;38.40;;;16.88;;
68140;SDS011;54941;52.220;104.306;2023-02-15T04:03:43;41.13;;;20.33;;
68140;SDS011;54941;52.220;104.306;2023-02-15T04:06:16;40.53;;;18.33;;
68140;SDS011;54941;52.220;104.306;2023-02-15T04:08:42;41.55;;;17.73;;
68140;SDS011;54941;52.220;104.306;2023-02-15T04:11:09;42.08;;;17.05;;
68140;SDS011;54941;52.220;104.306;2023-02-15T04:13:35;41.45;;;19.58;;
68140;SDS011;54941;52.220;104.306;2023-02-15T04:16:02;36.22;;;15.07;;
68140;SDS011;54941;52.220;104.306;2023-02-15T04:18:28;46.90;;;20.38;;
68140;SDS011;54941;52.220;104.306;2023-02-15T04:20:55;46.08;;;22.58;;
68140;SDS011;54941;52.220;104.306;2023-02-15T04:23:23;28.10;;;12.43;;
68140;SDS011;54941;52.220;104.306;2023-02-15T04:25:49;39.63;;;18.63;;
68140;SDS011;54941;52.220;104.306;2023-02-15T04:28:15;42.20;;;18.33;;
68140;SDS011;54941;52.220;104.306;2023-02-15T04:30:42;40.83;;;20.00;;
68140;SDS011;54941;52.220;104.306;2023-02-15T04:33:08;46.50;;;19.63;;
68140;SDS011;54941;52.220;104.306;2023-02-15T04:35:35;44.08;;;20.88;;
68140;SDS011;54941;52.220;104.306;2023-02-15T04:38:01;49.58;;;19.90;;
68140;SDS011;54941;52.220;104.306;2023-02-15T04:40:29;43.20;;;17.70;;
68140;SDS011;54941;52.220;104.306;2023-02-15T04:42:55;30.90;;;16.23;;
68140;SDS011;54941;52.220;104.306;2023-02-15T04:45:22;40.75;;;20.63;;
68140;SDS011;54941;52.220;104.306;2023-02-15T04:47:48;46.90;;;21.13;;
68140;SDS011;54941;52.220;104.306;2023-02-15T04:50:15;40.38;;;19.15;;
68140;SDS011;54941;52.220;104.306;2023-02-15T04:52:41;18.45;;;8.25;;
68140;SDS011;54941;52.220;104.306;2023-02-15T04:55:07;36.55;;;16.65;;
68140;SDS011;54941;52.220;104.306;2023-02-15T04:57:35;48.53;;;22.23;;
68140;SDS011;54941;52.220;104.306;2023-02-15T05:00:02;34.30;;;14.35;;
68140;SDS011;54941;52.220;104.306;2023-02-15T05:02:30;31.45;;;14.30;;
68140;SDS011;54941;52.220;104.306;2023-02-15T05:04:57;39.08;;;20.80;;
68140;SDS011;54941;52.220;104.306;2023-02-15T05:07:23;39.28;;;17.33;;
68140;SDS011;54941;52.220;104.306;2023-02-15T05:09:50;43.00;;;16.30;;
68140;SDS011;54941;52.220;104.306;2023-02-15T05:12:16;41.95;;;18.25;;
68140;SDS011;54941;52.220;104.306;2023-02-15T05:14:44;37.15;;;18.83;;
68140;SDS011;54941;52.220;104.306;2023-02-15T05:17:10;26.45;;;12.07;;
68140;SDS011;54941;52.220;104.306;2023-02-15T05:19:37;32.13;;;15.65;;
68140;SDS011;54941;52.220;104.306;2023-02-15T05:22:03;31.10;;;13.73;;
68140;SDS011;54941;52.220;104.306;2023-02-15T05:24:30;29.60;;;13.10;;
68140;SDS011;54941;52.220;104.306;2023-02-15T05:26:56;30.33;;;12.73;;
68140;SDS011;54941;52.220;104.306;2023-02-15T05:29:22;24.38;;;12.20;;
68140;SDS011;54941;52.220;104.306;2023-02-15T05:31:50;27.77;;;13.10;;
68140;SDS011;54941;52.220;104.306;2023-02-15T05:34:16;27.50;;;13.85;;
68140;SDS011;54941;52.220;104.306;2023-02-15T05:36:43;33.67;;;14.82;;
68140;SDS011;54941;52.220;104.306;2023-02-15T05:39:09;29.42;;;12.32;;
68140;SDS011;54941;52.220;104.306;2023-02-15T05:41:36;28.70;;;11.60;;
68140;SDS011;54941;52.220;104.306;2023-02-15T05:44:02;17.65;;;8.10;;
68140;SDS011;54941;52.220;104.306;2023-02-15T05:46:29;24.73;;;11.90;;
68140;SDS011;54941;52.220;104.306;2023-02-15T05:48:56;16.77;;;7.85;;
68140;SDS011;54941;52.220;104.306;2023-02-15T05:51:23;16.40;;;8.07;;
68140;SDS011;54941;52.220;104.306;2023-02-15T05:53:49;17.27;;;8.60;;
68140;SDS011;54941;52.220;104.306;2023-02-15T05:56:16;21.65;;;8.05;;
68140;SDS011;54941;52.220;104.306;2023-02-15T05:58:42;21.67;;;8.60;;
68140;SDS011;54941;52.220;104.306;2023-02-15T06:01:08;18.48;;;6.80;;
68140;SDS011;54941;52.220;104.306;2023-02-15T06:03:35;15.15;;;6.05;;
68140;SDS011;54941;52.220;104.306;2023-02-15T06:06:03;22.58;;;10.20;;
68140;SDS011;54941;52.220;104.306;2023-02-15T06:08:30;16.67;;;7.05;;
68140;SDS011;54941;52.220;104.306;2023-02-15T06:10:56;18.63;;;6.80;;
68140;SDS011;54941;52.220;104.306;2023-02-15T06:13:22;16.70;;;7.22;;
68140;SDS011;54941;52.220;104.306;2023-02-15T06:15:49;21.48;;;8.05;;
68140;SDS011;54941;52.220;104.306;2023-02-15T06:18:15;19.25;;;7.90;;
68140;SDS011;54941;52.220;104.306;2023-02-15T06:20:42;21.60;;;9.30;;
68140;SDS011;54941;52.220;104.306;2023-02-15T06:23:12;20.23;;;8.77;;
68140;SDS011;54941;52.220;104.306;2023-02-15T06:25:38;18.75;;;8.18;;
68140;SDS011;54941;52.220;104.306;2023-02-15T06:28:04;18.73;;;7.50;;
68140;SDS011;54941;52.220;104.306;2023-02-15T06:30:31;19.88;;;7.25;;
68140;SDS011;54941;52.220;104.306;2023-02-15T06:32:58;21.48;;;9.52;;
68140;SDS011;54941;52.220;104.306;2023-02-15T06:35:24;16.58;;;7.03;;
68140;SDS011;54941;52.220;104.306;2023-02-15T06:37:50;20.58;;;8.43;;
68140;SDS011;54941;52.220;104.306;2023-02-15T06:40:18;24.90;;;9.73;;
68140;SDS011;54941;52.220;104.306;2023-02-15T06:42:45;25.25;;;10.32;;
68140;SDS011;54941;52.220;104.306;2023-02-15T06:45:12;23.90;;;8.95;;
68140;SDS011;54941;52.220;104.306;2023-02-15T06:47:39;17.58;;;8.90;;
68140;SDS011;54941;52.220;104.306;2023-02-15T06:50:06;18.55;;;7.55;;
68140;SDS011;54941;52.220;104.306;2023-02-15T06:52:33;20.90;;;8.52;;
68140;SDS011;54941;52.220;104.306;2023-02-15T06:54:59;19.67;;;10.15;;
68140;SDS011;54941;52.220;104.306;2023-02-15T06:57:27;24.38;;;9.43;;
68140;SDS011;54941;52.220;104.306;2023-02-15T06:59:53;20.27;;;9.45;;
68140;SDS011;54941;52.220;104.306;2023-02-15T07:02:20;17.23;;;6.80;;
68140;SDS011;54941;52.220;104.306;2023-02-15T07:04:46;25.73;;;11.10;;
68140;SDS011;54941;52.220;104.306;2023-02-15T07:07:13;20.10;;;8.80;;
68140;SDS011;54941;52.220;104.306;2023-02-15T07:09:39;17.98;;;6.93;;
68140;SDS011;54941;52.220;104.306;2023-02-15T07:12:06;18.73;;;7.72;;
68140;SDS011;54941;52.220;104.306;2023-02-15T07:14:34;14.23;;;6.47;;
68140;SDS011;54941;52.220;104.306;2023-02-15T07:17:00;13.02;;;5.50;;
68140;SDS011;54941;52.220;104.306;2023-02-15T07:19:27;15.40;;;6.85;;
68140;SDS011;54941;52.220;104.306;2023-02-15T07:21:53;15.77;;;6.85;;
68140;SDS011;54941;52.220;104.306;2023-02-15T07:24:20;14.32;;;6.93;;
68140;SDS011;54941;52.220;104.306;2023-02-15T07:26:46;15.00;;;6.88;;
68140;SDS011;54941;52.220;104.306;2023-02-15T07:29:12;17.70;;;5.95;;
68140;SDS011;54941;52.220;104.306;2023-02-15T07:31:40;15.40;;;7.47;;
68140;SDS011;54941;52.220;104.306;2023-02-15T07:34:07;14.80;;;6.90;;
68140;SDS011;54941;52.220;104.306;2023-02-15T07:36:33;15.85;;;6.65;;
68140;SDS011;54941;52.220;104.306;2023-02-15T07:38:59;18.80;;;6.60;;
68140;SDS011;54941;52.220;104.306;2023-02-15T07:41:26;17.70;;;7.55;;
68140;SDS011;54941;52.220;104.306;2023-02-15T07:43:52;15.35;;;6.90;;
68140;SDS011;54941;52.220;104.306;2023-02-15T07:46:19;14.40;;;6.65;;
68140;SDS011;54941;52.220;104.306;2023-02-15T07:48:47;16.83;;;7.95;;
68140;SDS011;54941;52.220;104.306;2023-02-15T07:51:13;14.48;;;6.45;;
68140;SDS011;54941;52.220;104.306;2023-02-15T07:53:40;18.90;;;7.70;;
68140;SDS011;54941;52.220;104.306;2023-02-15T07:56:09;16.85;;;7.35;;
68140;SDS011;54941;52.220;104.306;2023-02-15T07:58:36;17.38;;;7.03;;
68140;SDS011;54941;52.220;104.306;2023-02-15T08:01:03;16.58;;;6.20;;
68140;SDS011;54941;52.220;104.306;2023-02-15T08:03:29;15.45;;;7.38;;
68140;SDS011;54941;52.220;104.306;2023-02-15T08:05:58;15.25;;;5.80;;
68140;SDS011;54941;52.220;104.306;2023-02-15T08:08:25;14.85;;;6.60;;
68140;SDS011;54941;52.220;104.306;2023-02-15T08:10:51;16.67;;;6.32;;
68140;SDS011;54941;52.220;104.306;2023-02-15T08:13:18;16.52;;;6.18;;
68140;SDS011;54941;52.220;104.306;2023-02-15T08:15:47;13.40;;;6.95;;
68140;SDS011;54941;52.220;104.306;2023-02-15T08:20:40;15.65;;;7.40;;
68140;SDS011;54941;52.220;104.306;2023-02-15T08:23:08;16.42;;;7.28;;
68140;SDS011;54941;52.220;104.306;2023-02-15T08:25:34;14.30;;;5.55;;
68140;SDS011;54941;52.220;104.306;2023-02-15T08:28:01;15.60;;;5.07;;
68140;SDS011;54941;52.220;104.306;2023-02-15T08:30:27;18.60;;;7.55;;
68140;SDS011;54941;52.220;104.306;2023-02-15T08:32:53;13.70;;;5.45;;
68140;SDS011;54941;52.220;104.306;2023-02-15T08:35:20;16.83;;;7.07;;
68140;SDS011;54941;52.220;104.306;2023-02-15T08:37:46;16.63;;;6.97;;
68140;SDS011;54941;52.220;104.306;2023-02-15T08:40:14;17.70;;;7.20;;
68140;SDS011;54941;52.220;104.306;2023-02-15T08:42:41;16.52;;;6.88;;
68140;SDS011;54941;52.220;104.306;2023-02-15T08:45:07;20.17;;;7.10;;
68140;SDS011;54941;52.220;104.306;2023-02-15T08:47:34;10.98;;;4.53;;
68140;SDS011;54941;52.220;104.306;2023-02-15T08:50:00;11.73;;;5.78;;
68140;SDS011;54941;52.220;104.306;2023-02-15T08:52:29;10.90;;;4.32;;
68140;SDS011;54941;52.220;104.306;2023-02-15T08:54:55;13.23;;;5.82;;
68140;SDS011;54941;52.220;104.306;2023-02-15T08:57:23;13.05;;;4.90;;
68140;SDS011;54941;52.220;104.306;2023-02-15T08:59:49;19.13;;;6.95;;
68140;SDS011;54941;52.220;104.306;2023-02-15T09:02:16;14.57;;;6.10;;
68140;SDS011;54941;52.220;104.306;2023-02-15T09:04:42;15.48;;;5.68;;
68140;SDS011;54941;52.220;104.306;2023-02-15T09:07:08;16.50;;;6.90;;
68140;SDS011;54941;52.220;104.306;2023-02-15T09:09:35;12.27;;;5.40;;
68140;SDS011;54941;52.220;104.306;2023-02-15T09:12:01;10.15;;;4.72;;
68140;SDS011;54941;52.220;104.306;2023-02-15T09:14:29;12.40;;;5.35;;
68140;SDS011;54941;52.220;104.306;2023-02-15T09:16:56;13.63;;;5.35;;
68140;SDS011;54941;52.220;104.306;2023-02-15T09:19:22;13.48;;;5.60;;
68140;SDS011;54941;52.220;104.306;2023-02-15T09:21:50;12.13;;;4.78;;
68140;SDS011;54941;52.220;104.306;2023-02-15T09:24:17;9.80;;;4.80;;
68140;SDS011;54941;52.220;104.306;2023-02-15T09:26:43;11.55;;;7.10;;
68140;SDS011;54941;52.220;104.306;2023-02-15T09:29:11;18.08;;;7.18;;
68140;SDS011;54941;52.220;104.306;2023-02-15T09:31:40;15.45;;;7.50;;
68140;SDS011;54941;52.220;104.306;2023-02-15T09:34:08;17.33;;;6.30;;
68140;SDS011;54941;52.220;104.306;2023-02-15T09:36:35;16.20;;;7.03;;
68140;SDS011;54941;52.220;104.306;2023-02-15T09:39:04;16.55;;;6.00;;
68140;SDS011;54941;52.220;104.306;2023-02-15T09:41:44;15.52;;;6.65;;
68140;SDS011;54941;52.220;104.306;2023-02-15T09:47:01;16.10;;;6.55;;
68140;SDS011;54941;52.220;104.306;2023-02-15T09:49:40;13.40;;;5.90;;
68140;SDS011;54941;52.220;104.306;2023-02-15T09:52:26;11.43;;;5.15;;
68140;SDS011;54941;52.220;104.306;2023-02-15T09:55:20;17.23;;;6.43;;
68140;SDS011;54941;52.220;104.306;2023-02-15T09:58:01;16.00;;;5.85;;
68140;SDS011;54941;52.220;104.306;2023-02-15T10:00:37;10.40;;;5.47;;
68140;SDS011;54941;52.220;104.306;2023-02-15T10:03:18;15.65;;;4.50;;
68140;SDS011;54941;52.220;104.306;2023-02-15T10:05:58;16.27;;;5.55;;
68140;SDS011;54941;52.220;104.306;2023-02-15T10:08:50;16.42;;;6.07;;
68140;SDS011;54941;52.220;104.306;2023-02-15T10:11:43;12.15;;;5.45;;
68140;SDS011;54941;52.220;104.306;2023-02-15T10:14:30;14.23;;;5.28;;
68140;SDS011;54941;52.220;104.306;2023-02-15T10:17:26;15.93;;;5.93;;
68140;SDS011;54941;52.220;104.306;2023-02-15T10:20:08;13.57;;;5.03;;
68140;SDS011;54941;52.220;104.306;2023-02-15T10:22:48;14.82;;;6.10;;
68140;SDS011;54941;52.220;104.306;2023-02-15T10:25:28;17.25;;;6.40;;
68140;SDS011;54941;52.220;104.306;2023-02-15T10:28:02;18.63;;;7.93;;
68140;SDS011;54941;52.220;104.306;2023-02-15T10:30:33;21.95;;;9.50;;
68140;SDS011;54941;52.220;104.306;2023-02-15T10:33:09;19.80;;;8.43;;
68140;SDS011;54941;52.220;104.306;2023-02-15T10:35:49;15.45;;;6.10;;
68140;SDS011;54941;52.220;104.306;2023-02-15T10:38:25;13.63;;;6.18;;
68140;SDS011;54941;52.220;104.306;2023-02-15T10:41:02;23.75;;;6.32;;
68140;SDS011;54941;52.220;104.306;2023-02-15T10:43:47;18.55;;;6.57;;
68140;SDS011;54941;52.220;104.306;2023-02-15T10:46:31;16.50;;;6.07;;
68140;SDS011;54941;52.220;104.306;2023-02-15T10:49:21;15.60;;;5.72;;
68140;SDS011;54941;52.220;104.306;2023-02-15T10:52:05;21.45;;;7.97;;
68140;SDS011;54941;52.220;104.306;2023-02-15T10:54:43;18.02;;;6.57;;
68140;SDS011;54941;52.220;104.306;2023-02-15T10:57:16;18.92;;;7.80;;
68140;SDS011;54941;52.220;104.306;2023-02-15T10:59:55;25.15;;;9.88;;
68140;SDS011;54941;52.220;104.306;2023-02-15T11:02:33;21.17;;;9.20;;
68140;SDS011;54941;52.220;104.306;2023-02-15T11:05:24;23.88;;;10.80;;
68140;SDS011;54941;52.220;104.306;2023-02-15T11:08:02;23.77;;;9.73;;
68140;SDS011;54941;52.220;104.306;2023-02-15T11:10:35;27.98;;;10.40;;
68140;SDS011;54941;52.220;104.306;2023-02-15T11:13:04;29.90;;;10.88;;
68140;SDS011;54941;52.220;104.306;2023-02-15T11:15:36;22.98;;;10.52;;
68140;SDS011;54941;52.220;104.306;2023-02-15T11:18:06;25.63;;;8.68;;
68140;SDS011;54941;52.220;104.306;2023-02-15T11:20:38;27.58;;;10.38;;
68140;SDS011;54941;52.220;104.306;2023-02-15T11:23:13;22.80;;;8.60;;
68140;SDS011;54941;52.220;104.306;2023-02-15T11:25:41;26.45;;;9.13;;
68140;SDS011;54941;52.220;104.306;2023-02-15T11:28:13;27.10;;;9.93;;
68140;SDS011;54941;52.220;104.306;2023-02-15T11:33:16;18.95;;;7.53;;
68140;SDS011;54941;52.220;104.306;2023-02-15T11:35:48;19.27;;;7.70;;
68140;SDS011;54941;52.220;104.306;2023-02-15T11:38:20;13.88;;;5.50;;
68140;SDS011;54941;52.220;104.306;2023-02-15T11:40:50;16.05;;;6.35;;
68140;SDS011;54941;52.220;104.306;2023-02-15T11:43:21;12.45;;;6.32;;
68140;SDS011;54941;52.220;104.306;2023-02-15T11:45:53;14.88;;;5.88;;
68140;SDS011;54941;52.220;104.306;2023-02-15T11:48:20;14.90;;;5.80;;
68140;SDS011;54941;52.220;104.306;2023-02-15T11:50:46;13.70;;;6.13;;
68140;SDS011;54941;52.220;104.306;2023-02-15T11:53:13;22.00;;;7.18;;
68140;SDS011;54941;52.220;104.306;2023-02-15T11:55:43;11.38;;;4.93;;
68140;SDS011;54941;52.220;104.306;2023-02-15T12:00:42;11.35;;;5.05;;
68140;SDS011;54941;52.220;104.306;2023-02-15T12:03:13;13.93;;;6.13;;
68140;SDS011;54941;52.220;104.306;2023-02-15T12:05:44;17.80;;;7.03;;
68140;SDS011;54941;52.220;104.306;2023-02-15T12:08:18;17.15;;;6.35;;
68140;SDS011;54941;52.220;104.306;2023-02-15T12:10:55;14.07;;;5.90;;
68140;SDS011;54941;52.220;104.306;2023-02-15T12:13:26;17.02;;;5.95;;
68140;SDS011;54941;52.220;104.306;2023-02-15T12:15:53;20.15;;;7.18;;
68140;SDS011;54941;52.220;104.306;2023-02-15T12:20:59;15.90;;;7.43;;
68140;SDS011;54941;52.220;104.306;2023-02-15T12:23:28;15.82;;;6.75;;
68140;SDS011;54941;52.220;104.306;2023-02-15T12:25:57;23.27;;;9.10;;
68140;SDS011;54941;52.220;104.306;2023-02-15T12:28:25;19.50;;;7.80;;
68140;SDS011;54941;52.220;104.306;2023-02-15T12:30:57;19.00;;;8.10;;
68140;SDS011;54941;52.220;104.306;2023-02-15T12:33:26;18.40;;;6.78;;
68140;SDS011;54941;52.220;104.306;2023-02-15T12:35:56;16.33;;;7.65;;
68140;SDS011;54941;52.220;104.306;2023-02-15T12:38:26;20.33;;;7.10;;
68140;SDS011;54941;52.220;104.306;2023-02-15T12:41:01;17.67;;;7.38;;
68140;SDS011;54941;52.220;104.306;2023-02-15T12:43:31;14.68;;;6.45;;
68140;SDS011;54941;52.220;104.306;2023-02-15T12:46:19;16.38;;;6.68;;
68140;SDS011;54941;52.220;104.306;2023-02-15T12:48:51;10.40;;;5.25;;
68140;SDS011;54941;52.220;104.306;2023-02-15T12:51:31;15.65;;;5.75;;
68140;SDS011;54941;52.220;104.306;2023-02-15T12:54:15;17.50;;;5.72;;
68140;SDS011;54941;52.220;104.306;2023-02-15T12:56:52;13.98;;;5.90;;
68140;SDS011;54941;52.220;104.306;2023-02-15T12:59:20;15.57;;;5.93;;
68140;SDS011;54941;52.220;104.306;2023-02-15T13:01:47;14.77;;;4.80;;
68140;SDS011;54941;52.220;104.306;2023-02-15T13:04:15;12.13;;;5.15;;
68140;SDS011;54941;52.220;104.306;2023-02-15T13:06:48;18.42;;;6.43;;
68140;SDS011;54941;52.220;104.306;2023-02-15T13:09:16;19.48;;;6.70;;
68140;SDS011;54941;52.220;104.306;2023-02-15T13:11:45;15.63;;;5.10;;
68140;SDS011;54941;52.220;104.306;2023-02-15T13:14:18;10.85;;;5.35;;
68140;SDS011;54941;52.220;104.306;2023-02-15T13:16:47;15.88;;;5.68;;
68140;SDS011;54941;52.220;104.306;2023-02-15T13:19:15;41.10;;;17.15;;
68140;SDS011;54941;52.220;104.306;2023-02-15T13:21:44;44.75;;;19.33;;
68140;SDS011;54941;52.220;104.306;2023-02-15T13:24:15;41.42;;;16.42;;
68140;SDS011;54941;52.220;104.306;2023-02-15T13:26:46;32.83;;;12.75;;
68140;SDS011;54941;52.220;104.306;2023-02-15T13:29:15;29.25;;;12.68;;
68140;SDS011;54941;52.220;104.306;2023-02-15T13:31:48;24.35;;;11.32;;
68140;SDS011;54941;52.220;104.306;2023-02-15T13:34:17;28.73;;;12.98;;
68140;SDS011;54941;52.220;104.306;2023-02-15T13:36:51;25.25;;;11.27;;
68140;SDS011;54941;52.220;104.306;2023-02-15T13:39:25;25.67;;;11.25;;
68140;SDS011;54941;52.220;104.306;2023-02-15T13:41:58;28.05;;;10.85;;
68140;SDS011;54941;52.220;104.306;2023-02-15T13:44:37;23.30;;;10.07;;
68140;SDS011;54941;52.220;104.306;2023-02-15T13:47:25;19.55;;;8.32;;
68140;SDS011;54941;52.220;104.306;2023-02-15T13:50:00;18.08;;;8.88;;
68140;SDS011;54941;52.220;104.306;2023-02-15T13:52:45;34.65;;;11.57;;
68140;SDS011;54941;52.220;104.306;2023-02-15T13:58:06;18.23;;;7.30;;
68140;SDS011;54941;52.220;104.306;2023-02-15T14:00:55;18.13;;;8.43;;
68140;SDS011;54941;52.220;104.306;2023-02-15T14:03:40;32.25;;;10.90;;
68140;SDS011;54941;52.220;104.306;2023-02-15T14:06:32;15.95;;;6.18;;
68140;SDS011;54941;52.220;104.306;2023-02-15T14:09:21;18.60;;;6.68;;
68140;SDS011;54941;52.220;104.306;2023-02-15T14:11:57;25.13;;;9.60;;
68140;SDS011;54941;52.220;104.306;2023-02-15T14:14:39;19.73;;;7.78;;
68140;SDS011;54941;52.220;104.306;2023-02-15T14:17:22;24.17;;;8.48;;
68140;SDS011;54941;52.220;104.306;2023-02-15T14:19:56;22.25;;;8.13;;
68140;SDS011;54941;52.220;104.306;2023-02-15T14:22:29;23.83;;;8.93;;
68140;SDS011;54941;52.220;104.306;2023-02-15T14:25:14;17.98;;;7.05;;
68140;SDS011;54941;52.220;104.306;2023-02-15T14:27:48;19.30;;;9.10;;
68140;SDS011;54941;52.220;104.306;2023-02-15T14:30:22;23.35;;;8.57;;
68140;SDS011;54941;52.220;104.306;2023-02-15T14:32:54;23.05;;;11.05;;
68140;SDS011;54941;52.220;104.306;2023-02-15T14:35:26;25.05;;;11.80;;
68140;SDS011;54941;52.220;104.306;2023-02-15T14:37:57;26.67;;;10.57;;
68140;SDS011;54941;52.220;104.306;2023-02-15T14:40:31;20.13;;;8.45;;
68140;SDS011;54941;52.220;104.306;2023-02-15T14:43:06;25.85;;;8.85;;
68140;SDS011;54941;52.220;104.306;2023-02-15T14:45:39;31.92;;;13.43;;
68140;SDS011;54941;52.220;104.306;2023-02-15T14:48:11;33.45;;;13.23;;
68140;SDS011;54941;52.220;104.306;2023-02-15T14:50:42;16.85;;;9.00;;